createdAt,value
2022-09-21T00:00:50.786Z,6.00
2022-09-21T00:03:20.169Z,6.00
2022-09-21T00:05:48.069Z,5.90
2022-09-21T00:08:16.166Z,5.80
2022-09-21T00:10:44.073Z,5.80
2022-09-21T00:13:13.329Z,5.90
2022-09-21T00:15:41.823Z,6.00
2022-09-21T00:18:11.205Z,6.00
2022-09-21T00:20:43.497Z,6.00
2022-09-21T00:23:11.342Z,6.10
2022-09-21T00:25:39.489Z,5.90
2022-09-21T00:28:07.458Z,5.90
2022-09-21T00:30:35.465Z,5.90
2022-09-21T00:33:03.459Z,5.90
2022-09-21T00:35:31.323Z,5.90
2022-09-21T00:38:03.372Z,5.90
2022-09-21T00:40:31.488Z,6.00
2022-09-21T00:43:13.807Z,6.00
2022-09-21T00:45:42.295Z,6.00
2022-09-21T00:48:10.965Z,6.00
2022-09-21T00:50:43.494Z,6.00
2022-09-21T00:53:12.846Z,6.00
2022-09-21T00:55:44.283Z,6.00
2022-09-21T00:58:16.337Z,5.90
2022-09-21T01:00:45.615Z,5.90
2022-09-21T01:03:14.495Z,5.80
2022-09-21T01:05:42.376Z,5.80
2022-09-21T01:08:14.296Z,5.80
2022-09-21T01:10:55.288Z,5.80
2022-09-21T01:13:35.374Z,5.70
2022-09-21T01:16:08.480Z,5.70
2022-09-21T01:18:43.676Z,5.70
2022-09-21T01:21:20.524Z,5.70
2022-09-21T01:24:19.771Z,5.60
2022-09-21T01:27:10.173Z,5.60
2022-09-21T01:29:44.814Z,5.60
2022-09-21T01:32:16.516Z,5.60
2022-09-21T01:34:50.102Z,5.40
2022-09-21T01:37:24.378Z,5.30
2022-09-21T01:39:56.655Z,5.30
2022-09-21T01:42:27.556Z,5.20
2022-09-21T01:44:59.738Z,5.10
2022-09-21T01:47:31.479Z,5.00
2022-09-21T01:50:02.543Z,4.90
2022-09-21T01:52:35.597Z,4.90
2022-09-21T01:55:08.719Z,4.90
2022-09-21T01:57:44.351Z,5.00
2022-09-21T02:00:16.020Z,5.00
2022-09-21T02:02:50.342Z,4.90
2022-09-21T02:05:22.449Z,4.90
2022-09-21T02:07:52.305Z,4.90
2022-09-21T02:10:24.486Z,4.80
2022-09-21T02:12:56.817Z,4.70
2022-09-21T02:15:33.559Z,4.70
2022-09-21T02:18:07.857Z,4.70
2022-09-21T02:20:42.548Z,4.70
2022-09-21T02:23:16.168Z,4.80
2022-09-21T02:25:53.209Z,4.80
2022-09-21T02:28:32.308Z,4.80
2022-09-21T02:31:09.425Z,4.90
2022-09-21T02:33:47.233Z,4.80
2022-09-21T02:36:22.503Z,4.90
2022-09-21T02:38:54.094Z,4.90
2022-09-21T02:41:30.198Z,4.90
2022-09-21T02:44:03.819Z,4.90
2022-09-21T02:46:38.671Z,5.00
2022-09-21T02:49:09.763Z,5.00
2022-09-21T02:51:41.828Z,5.10
2022-09-21T02:54:14.363Z,5.10
2022-09-21T02:56:43.563Z,5.10
2022-09-21T02:59:11.819Z,5.10
2022-09-21T03:01:42.305Z,5.00
2022-09-21T03:04:10.920Z,4.80
2022-09-21T03:06:38.815Z,4.80
2022-09-21T03:09:06.825Z,4.70
2022-09-21T03:11:36.011Z,4.60
2022-09-21T03:14:05.440Z,4.70
2022-09-21T03:16:33.429Z,4.70
2022-09-21T03:19:02.654Z,4.70
2022-09-21T03:21:30.742Z,4.60
2022-09-21T03:23:58.655Z,4.60
2022-09-21T03:26:26.617Z,4.60
2022-09-21T03:28:54.861Z,4.50
2022-09-21T03:31:23.354Z,4.50
2022-09-21T03:33:51.246Z,4.40
2022-09-21T03:36:20.954Z,4.40
2022-09-21T03:38:48.774Z,4.30
2022-09-21T03:41:16.842Z,4.30
2022-09-21T03:43:44.660Z,4.30
2022-09-21T03:46:12.557Z,4.30
2022-09-21T03:48:42.453Z,4.20
2022-09-21T03:51:10.427Z,4.20
2022-09-21T03:53:39.686Z,4.20
2022-09-21T03:56:07.606Z,4.20
2022-09-21T03:58:35.468Z,4.30
2022-09-21T04:01:04.419Z,4.40
2022-09-21T04:03:32.297Z,4.40
2022-09-21T04:06:00.235Z,4.30
2022-09-21T04:08:28.105Z,4.20
2022-09-21T04:10:57.352Z,4.20
2022-09-21T04:13:25.578Z,4.10
2022-09-21T04:15:53.575Z,4.10
2022-09-21T04:18:21.823Z,4.10
2022-09-21T04:20:49.708Z,4.10
2022-09-21T04:23:17.586Z,4.00
2022-09-21T04:25:46.628Z,4.00
2022-09-21T04:28:15.850Z,4.00
2022-09-21T04:30:43.822Z,3.90
2022-09-21T04:33:11.764Z,3.90
2022-09-21T04:35:39.653Z,3.90
2022-09-21T04:38:07.495Z,3.90
2022-09-21T04:40:35.428Z,3.90
2022-09-21T04:43:03.364Z,3.90
2022-09-21T04:45:32.680Z,3.90
2022-09-21T04:48:00.554Z,3.80
2022-09-21T04:50:28.497Z,3.70
2022-09-21T04:52:58.328Z,3.70
2022-09-21T04:55:26.299Z,3.70
2022-09-21T04:57:54.166Z,3.70
2022-09-21T05:00:22.532Z,3.70
2022-09-21T05:02:51.961Z,3.70
2022-09-21T05:05:20.076Z,3.70
2022-09-21T05:07:47.943Z,3.80
2022-09-21T05:10:15.091Z,3.90
2022-09-21T05:12:43.331Z,3.90
2022-09-21T05:15:11.478Z,3.90
2022-09-21T05:17:39.387Z,4.00
2022-09-21T05:20:09.481Z,4.00
2022-09-21T05:22:37.429Z,4.00
2022-09-21T05:25:06.208Z,3.90
2022-09-21T05:27:34.056Z,3.90
2022-09-21T05:30:02.491Z,3.90
2022-09-21T05:32:42.555Z,4.00
2022-09-21T05:35:19.258Z,4.10
2022-09-21T05:37:57.062Z,4.50
2022-09-21T05:40:25.698Z,5.00
2022-09-21T05:42:54.216Z,5.50
2022-09-21T05:45:23.114Z,5.90
2022-09-21T05:47:57.842Z,6.30
2022-09-21T05:50:38.942Z,6.60
2022-09-21T05:53:21.369Z,7.00
2022-09-21T05:55:56.895Z,7.20
2022-09-21T05:58:37.979Z,7.50
2022-09-21T06:01:20.585Z,7.90
2022-09-21T06:03:50.194Z,8.30
2022-09-21T06:06:20.964Z,8.50
2022-09-21T06:08:48.883Z,8.70
2022-09-21T06:11:16.816Z,8.80
2022-09-21T06:13:44.768Z,8.80
2022-09-21T06:16:12.795Z,8.90
2022-09-21T06:18:41.202Z,9.10
2022-09-21T06:21:09.801Z,9.20
2022-09-21T06:23:39.084Z,9.30
2022-09-21T06:26:07.054Z,9.60
2022-09-21T06:28:34.971Z,9.90
2022-09-21T06:31:02.991Z,10.20
2022-09-21T06:33:30.937Z,10.30
2022-09-21T06:36:00.155Z,10.60
2022-09-21T06:38:29.126Z,10.80
2022-09-21T06:41:02.862Z,11.00
2022-09-21T06:43:31.325Z,11.20
2022-09-21T06:46:02.336Z,11.30
2022-09-21T06:48:31.815Z,11.60
2022-09-21T06:51:00.449Z,11.70
2022-09-21T06:53:29.703Z,11.80
2022-09-21T06:56:03.433Z,12.00
2022-09-21T06:58:31.914Z,12.20
2022-09-21T07:00:59.885Z,12.40
2022-09-21T07:03:28.094Z,12.60
2022-09-21T07:05:55.921Z,12.70
2022-09-21T07:11:13.806Z,12.80
2022-09-21T07:13:42.529Z,12.90
2022-09-21T07:16:11.184Z,13.10
2022-09-21T07:18:44.147Z,13.40
2022-09-21T07:21:14.512Z,13.50
2022-09-21T07:23:42.425Z,13.80
2022-09-21T07:26:14.128Z,13.80
2022-09-21T07:28:42.136Z,13.90
2022-09-21T07:31:11.444Z,14.20
2022-09-21T07:33:39.755Z,14.40
2022-09-21T07:36:10.602Z,14.60
2022-09-21T07:38:40.315Z,14.80
2022-09-21T07:41:08.540Z,15.10
2022-09-21T07:43:40.162Z,15.40
2022-09-21T07:46:08.530Z,15.60
2022-09-21T07:48:36.513Z,15.80
2022-09-21T07:51:06.218Z,16.00
2022-09-21T07:53:34.284Z,16.10
2022-09-21T07:56:03.382Z,16.30
2022-09-21T07:58:48.742Z,16.40
2022-09-21T08:01:18.632Z,16.60
2022-09-21T08:03:46.618Z,16.70
2022-09-21T08:06:14.436Z,16.90
2022-09-21T08:08:42.680Z,16.90
2022-09-21T08:11:11.865Z,17.10
2022-09-21T08:13:39.960Z,17.20
2022-09-21T08:16:08.228Z,17.00
2022-09-21T08:18:40.027Z,17.10
2022-09-21T08:21:10.472Z,17.00
2022-09-21T08:23:43.004Z,16.60
2022-09-21T08:26:16.446Z,16.50
2022-09-21T08:28:44.474Z,16.60
2022-09-21T08:31:12.382Z,16.50
2022-09-21T08:33:41.698Z,16.50
2022-09-21T08:36:10.376Z,16.80
2022-09-21T08:38:39.452Z,17.10
2022-09-21T08:41:17.426Z,17.30
2022-09-21T08:43:48.000Z,17.50
2022-09-21T08:46:19.677Z,17.50
2022-09-21T08:48:55.390Z,17.60
2022-09-21T08:51:26.957Z,17.90
2022-09-21T08:53:58.820Z,17.90
2022-09-21T08:56:47.084Z,18.30
2022-09-21T08:59:16.618Z,18.50
2022-09-21T09:01:58.361Z,18.50
2022-09-21T09:04:40.965Z,18.40
2022-09-21T09:07:23.073Z,18.30
2022-09-21T09:10:04.549Z,18.50
2022-09-21T09:12:46.666Z,18.50
2022-09-21T09:15:34.277Z,18.70
2022-09-21T09:18:10.316Z,18.90
2022-09-21T09:20:42.658Z,18.80
2022-09-21T09:23:16.115Z,19.20
2022-09-21T09:25:45.656Z,19.10
2022-09-21T09:28:28.108Z,18.90
2022-09-21T09:31:00.989Z,18.90
2022-09-21T09:33:36.558Z,19.00
2022-09-21T09:36:07.401Z,18.80
2022-09-21T09:38:39.385Z,19.00
2022-09-21T09:41:35.019Z,19.40
2022-09-21T09:44:15.032Z,19.50
2022-09-21T09:46:56.573Z,19.70
2022-09-21T09:49:33.928Z,19.80
2022-09-21T09:52:04.926Z,19.80
2022-09-21T09:54:36.491Z,19.70
2022-09-21T09:57:06.099Z,19.80
2022-09-21T09:59:38.092Z,19.90
2022-09-21T10:02:09.101Z,20.00
2022-09-21T10:04:37.010Z,20.00
2022-09-21T10:07:06.331Z,20.00
2022-09-21T10:09:35.604Z,19.60
2022-09-21T10:12:16.700Z,19.40
2022-09-21T10:14:50.596Z,19.30
2022-09-21T10:17:19.667Z,19.10
2022-09-21T10:19:48.037Z,19.10
2022-09-21T10:22:19.540Z,19.20
2022-09-21T10:24:50.754Z,19.40
2022-09-21T10:27:24.687Z,19.50
2022-09-21T10:29:52.575Z,19.70
2022-09-21T10:32:23.716Z,19.80
2022-09-21T10:35:19.131Z,19.70
2022-09-21T10:37:53.730Z,19.70
2022-09-21T10:40:27.717Z,19.50
2022-09-21T10:42:58.637Z,19.60
2022-09-21T10:45:28.961Z,20.10
2022-09-21T10:47:59.759Z,20.30
2022-09-21T10:50:30.556Z,20.50
2022-09-21T10:53:02.904Z,20.30
2022-09-21T10:55:32.187Z,20.50
2022-09-21T10:58:00.824Z,20.40
2022-09-21T11:00:38.309Z,19.90
2022-09-21T11:03:31.683Z,19.70
2022-09-21T11:06:07.913Z,20.20
2022-09-21T11:08:43.146Z,20.50
2022-09-21T11:11:26.622Z,20.60
2022-09-21T11:14:01.084Z,20.00
2022-09-21T11:16:34.392Z,20.00
2022-09-21T11:19:11.295Z,20.30
2022-09-21T11:21:46.084Z,20.20
2022-09-21T11:24:24.442Z,20.20
2022-09-21T11:26:59.347Z,20.00
2022-09-21T11:29:32.538Z,20.20
2022-09-21T11:32:16.171Z,20.30
2022-09-21T11:34:59.511Z,20.20
2022-09-21T11:37:44.285Z,19.90
2022-09-21T11:40:33.194Z,19.30
2022-09-21T11:43:13.620Z,19.10
2022-09-21T11:45:58.918Z,19.50
2022-09-21T11:48:37.749Z,20.00
2022-09-21T11:51:18.546Z,20.00
2022-09-21T11:54:05.575Z,19.40
2022-09-21T11:56:45.836Z,18.60
2022-09-21T11:59:45.681Z,18.30
2022-09-21T12:02:32.177Z,18.10
2022-09-21T12:05:07.782Z,18.40
2022-09-21T12:07:54.265Z,18.70
2022-09-21T12:10:43.514Z,18.80
2022-09-21T12:13:23.395Z,18.30
2022-09-21T12:16:03.007Z,18.20
2022-09-21T12:18:37.419Z,18.60
2022-09-21T12:21:14.323Z,19.00
2022-09-21T12:23:45.998Z,19.40
2022-09-21T12:26:17.787Z,19.50
2022-09-21T12:28:51.919Z,20.30
2022-09-21T12:31:30.835Z,20.90
2022-09-21T12:34:04.410Z,21.40
2022-09-21T12:36:39.580Z,21.80
2022-09-21T12:39:24.473Z,21.40
2022-09-21T12:41:57.537Z,20.50
2022-09-21T12:44:34.127Z,19.60
2022-09-21T12:47:10.166Z,18.90
2022-09-21T12:49:42.684Z,18.70
2022-09-21T12:52:16.427Z,18.60
2022-09-21T12:54:49.290Z,18.50
2022-09-21T12:57:49.250Z,17.80
2022-09-21T13:00:22.172Z,17.50
2022-09-21T13:02:55.749Z,17.50
2022-09-21T13:05:35.718Z,17.50
2022-09-21T13:08:12.283Z,17.90
2022-09-21T13:10:45.449Z,18.30
2022-09-21T13:13:30.619Z,18.60
2022-09-21T13:16:01.450Z,19.10
2022-09-21T13:18:35.862Z,19.80
2022-09-21T13:21:17.417Z,20.40
2022-09-21T13:23:52.301Z,20.80
2022-09-21T13:26:32.646Z,20.70
2022-09-21T13:29:36.327Z,20.30
2022-09-21T13:32:23.235Z,20.00
2022-09-21T13:34:51.569Z,19.80
2022-09-21T13:37:30.858Z,19.70
2022-09-21T13:40:41.955Z,19.60
2022-09-21T13:43:48.082Z,19.70
2022-09-21T13:46:48.479Z,19.50
2022-09-21T13:49:22.961Z,19.70
2022-09-21T13:51:54.442Z,19.90
2022-09-21T13:54:25.397Z,19.60
2022-09-21T13:57:09.591Z,19.70
2022-09-21T13:59:39.352Z,19.80
2022-09-21T14:02:23.681Z,20.10
2022-09-21T14:04:53.543Z,20.40
2022-09-21T14:07:21.732Z,20.40
2022-09-21T14:09:57.443Z,20.30
2022-09-21T14:12:28.004Z,20.20
2022-09-21T14:15:33.192Z,19.90
2022-09-21T14:18:46.921Z,19.50
2022-09-21T14:21:18.705Z,18.90
2022-09-21T14:24:21.764Z,18.30
2022-09-21T14:27:03.432Z,18.00
2022-09-21T14:29:40.277Z,17.50
2022-09-21T14:32:17.133Z,17.30
2022-09-21T14:34:48.819Z,17.10
2022-09-21T14:37:32.537Z,17.00
2022-09-21T14:40:03.813Z,16.90
2022-09-21T14:42:32.964Z,17.00
2022-09-21T14:45:04.059Z,17.20
2022-09-21T14:47:52.773Z,17.50
2022-09-21T14:50:36.122Z,17.70
2022-09-21T14:53:40.164Z,18.00
2022-09-21T14:56:31.506Z,18.30
2022-09-21T14:59:12.575Z,18.60
2022-09-21T15:01:42.241Z,18.60
2022-09-21T15:04:30.179Z,18.70
2022-09-21T15:07:28.193Z,18.60
2022-09-21T15:10:43.153Z,18.60
2022-09-21T15:13:43.270Z,18.30
2022-09-21T15:16:36.757Z,18.10
2022-09-21T15:19:13.997Z,17.80
2022-09-21T15:21:44.471Z,17.60
2022-09-21T15:24:20.857Z,17.50
2022-09-21T15:26:52.271Z,17.40
2022-09-21T15:29:25.599Z,17.40
2022-09-21T15:31:54.693Z,17.30
2022-09-21T15:34:24.050Z,17.20
2022-09-21T15:36:52.815Z,17.20
2022-09-21T15:39:26.707Z,17.10
2022-09-21T15:42:23.127Z,17.00
2022-09-21T15:45:06.028Z,16.90
2022-09-21T15:47:34.617Z,16.80
2022-09-21T15:50:03.258Z,16.70
2022-09-21T15:52:35.200Z,16.60
2022-09-21T15:55:12.861Z,16.50
2022-09-21T15:57:43.948Z,16.40
2022-09-21T16:00:24.491Z,16.30
2022-09-21T16:03:05.595Z,16.30
2022-09-21T16:05:44.063Z,16.20
2022-09-21T16:08:22.554Z,16.20
2022-09-21T16:10:51.130Z,16.10
2022-09-21T16:13:41.089Z,16.10
2022-09-21T16:16:11.066Z,16.20
2022-09-21T16:18:44.582Z,16.10
2022-09-21T16:21:24.456Z,16.00
2022-09-21T16:23:55.553Z,16.00
2022-09-21T16:26:26.808Z,15.90
2022-09-21T16:29:18.417Z,15.80
2022-09-21T16:31:50.094Z,15.60
2022-09-21T16:34:22.714Z,15.60
2022-09-21T16:36:52.601Z,15.40
2022-09-21T16:39:22.699Z,15.20
2022-09-21T16:42:00.089Z,15.00
2022-09-21T16:44:36.776Z,14.90
2022-09-21T16:47:05.430Z,14.60
2022-09-21T16:49:35.742Z,14.40
2022-09-21T16:52:04.225Z,14.20
2022-09-21T16:54:32.748Z,14.00
2022-09-21T16:57:02.817Z,14.00
2022-09-21T16:59:33.131Z,13.90
2022-09-21T17:02:04.191Z,13.70
2022-09-21T17:04:33.679Z,13.50
2022-09-21T17:07:03.536Z,13.30
2022-09-21T17:09:35.375Z,13.10
2022-09-21T17:12:06.158Z,13.00
2022-09-21T17:14:40.022Z,13.00
2022-09-21T17:17:17.517Z,13.00
2022-09-21T17:19:46.579Z,12.90
2022-09-21T17:22:17.181Z,12.80
2022-09-21T17:24:50.789Z,12.70
2022-09-21T17:27:21.331Z,12.60
2022-09-21T17:29:53.650Z,12.50
2022-09-21T17:32:22.968Z,12.30
2022-09-21T17:34:56.688Z,12.20
2022-09-21T17:37:25.362Z,12.10
2022-09-21T17:39:53.731Z,12.00
2022-09-21T17:42:25.125Z,11.90
2022-09-21T17:45:06.799Z,11.70
2022-09-21T17:47:35.075Z,11.60
2022-09-21T17:50:16.103Z,11.40
2022-09-21T17:53:02.392Z,11.20
2022-09-21T17:55:30.998Z,11.00
2022-09-21T17:58:17.296Z,11.00
2022-09-21T18:00:54.464Z,10.90
2022-09-21T18:03:25.027Z,10.90
2022-09-21T18:05:57.153Z,10.80
2022-09-21T18:08:26.959Z,10.60
2022-09-21T18:11:03.809Z,10.50
2022-09-21T18:13:41.243Z,10.40
2022-09-21T18:16:23.259Z,10.20
2022-09-21T18:19:02.098Z,10.20
2022-09-21T18:21:30.980Z,10.10
2022-09-21T18:24:18.454Z,10.00
2022-09-21T18:26:47.946Z,10.00
2022-09-21T18:29:39.468Z,10.00
2022-09-21T18:32:29.515Z,10.00
2022-09-21T18:35:16.665Z,10.00
2022-09-21T18:37:57.833Z,10.00
2022-09-21T18:40:33.785Z,10.00
2022-09-21T18:43:21.924Z,10.00
2022-09-21T18:45:56.369Z,10.00
2022-09-21T18:48:36.831Z,9.90
2022-09-21T18:51:12.374Z,9.80
2022-09-21T18:53:46.694Z,9.60
2022-09-21T18:56:15.741Z,9.50
2022-09-21T18:58:44.094Z,9.50
2022-09-21T19:01:13.699Z,9.50
2022-09-21T19:03:44.021Z,9.50
2022-09-21T19:06:29.223Z,9.40
2022-09-21T19:09:03.817Z,9.40
2022-09-21T19:11:38.088Z,9.40
2022-09-21T19:14:14.582Z,9.40
2022-09-21T19:16:53.369Z,9.30
2022-09-21T19:19:32.721Z,9.30
2022-09-21T19:22:07.471Z,9.40
2022-09-21T19:24:44.117Z,9.30
2022-09-21T19:27:19.249Z,9.10
2022-09-21T19:30:01.678Z,9.10
2022-09-21T19:32:35.935Z,9.00
2022-09-21T19:35:16.972Z,9.00
2022-09-21T19:37:45.832Z,9.00
2022-09-21T19:40:14.491Z,8.90
2022-09-21T19:42:55.477Z,8.90
2022-09-21T19:45:29.182Z,8.90
2022-09-21T19:48:03.515Z,8.80
2022-09-21T19:50:41.049Z,8.60
2022-09-21T19:53:31.707Z,8.50
2022-09-21T19:56:18.647Z,8.50
2022-09-21T19:59:04.721Z,8.50
2022-09-21T20:01:37.119Z,8.50
2022-09-21T20:04:07.348Z,8.50
2022-09-21T20:06:40.016Z,8.50
2022-09-21T20:09:13.655Z,8.50
2022-09-21T20:11:47.963Z,8.40
2022-09-21T20:14:26.886Z,8.40
2022-09-21T20:16:56.913Z,8.50
2022-09-21T20:19:46.710Z,8.50
2022-09-21T20:22:17.941Z,8.50
2022-09-21T20:24:56.312Z,8.40
2022-09-21T20:27:32.507Z,8.50
2022-09-21T20:30:00.412Z,8.40
2022-09-21T20:32:28.415Z,8.40
2022-09-21T20:34:57.142Z,8.40
2022-09-21T20:37:27.294Z,8.40
2022-09-21T20:39:55.648Z,8.30
2022-09-21T20:42:25.073Z,8.30
2022-09-21T20:44:53.708Z,8.30
2022-09-21T20:47:22.041Z,8.20
2022-09-21T20:49:50.706Z,8.20
2022-09-21T20:52:18.554Z,8.20
2022-09-21T20:54:49.486Z,8.20
2022-09-21T20:57:17.953Z,8.10
2022-09-21T20:59:45.867Z,8.10
2022-09-21T21:02:15.177Z,8.10
2022-09-21T21:04:43.105Z,8.10
2022-09-21T21:07:11.059Z,8.10
2022-09-21T21:09:38.932Z,8.00
2022-09-21T21:12:09.435Z,8.00
2022-09-21T21:14:37.522Z,8.00
2022-09-21T21:17:06.709Z,7.90
2022-09-21T21:19:34.791Z,7.90
2022-09-21T21:22:02.700Z,7.70
2022-09-21T21:24:42.380Z,7.60
2022-09-21T21:27:14.738Z,7.60
2022-09-21T21:29:43.060Z,7.60
2022-09-21T21:32:11.323Z,7.70
2022-09-21T21:34:39.303Z,7.70
2022-09-21T21:37:07.217Z,7.70
2022-09-21T21:39:35.211Z,7.50
2022-09-21T21:42:03.470Z,7.50
2022-09-21T21:44:33.043Z,7.40
2022-09-21T21:47:15.388Z,7.40
2022-09-21T21:49:49.117Z,7.40
2022-09-21T21:52:17.013Z,7.30
2022-09-21T21:54:44.977Z,7.20
2022-09-21T21:57:14.311Z,7.10
2022-09-21T21:59:44.551Z,7.10
2022-09-21T22:02:12.641Z,7.00
2022-09-21T22:04:40.534Z,7.00
2022-09-21T22:07:08.399Z,7.00
2022-09-21T22:09:36.366Z,7.10
2022-09-21T22:12:04.360Z,7.20
2022-09-21T22:14:32.283Z,7.20
2022-09-21T22:17:01.497Z,7.20
2022-09-21T22:19:29.401Z,7.20
2022-09-21T22:21:57.725Z,7.20
2022-09-21T22:24:25.778Z,7.20
2022-09-21T22:26:53.647Z,7.10
2022-09-21T22:29:21.594Z,7.00
2022-09-21T22:31:51.636Z,6.90
2022-09-21T22:34:20.953Z,6.90
2022-09-21T22:36:48.937Z,7.00
2022-09-21T22:39:16.865Z,6.90
2022-09-21T22:41:45.150Z,6.80
2022-09-21T22:44:13.047Z,6.70
2022-09-21T22:46:40.971Z,6.70
2022-09-21T22:49:09.051Z,6.80
2022-09-21T22:51:38.328Z,6.80
2022-09-21T22:54:06.479Z,6.90
2022-09-21T22:56:35.163Z,6.90
2022-09-21T22:59:05.193Z,6.90
2022-09-21T23:01:35.129Z,6.90
2022-09-21T23:04:05.313Z,6.90
2022-09-21T23:06:34.922Z,6.90
2022-09-21T23:09:07.474Z,6.90
2022-09-21T23:11:38.330Z,6.80
2022-09-21T23:14:06.679Z,6.70
2022-09-21T23:16:34.881Z,6.60
2022-09-21T23:19:02.775Z,6.50
2022-09-21T23:21:31.548Z,6.40
2022-09-21T23:24:01.664Z,6.30
2022-09-21T23:26:33.101Z,6.30
2022-09-21T23:29:02.200Z,6.30
2022-09-21T23:31:31.483Z,6.40
2022-09-21T23:34:00.790Z,6.40
2022-09-21T23:36:29.632Z,6.50
2022-09-21T23:38:58.584Z,6.50
2022-09-21T23:41:28.276Z,6.50
2022-09-21T23:43:58.266Z,6.50
2022-09-21T23:46:29.571Z,6.50
2022-09-21T23:48:58.160Z,6.40
2022-09-21T23:51:26.587Z,6.30
2022-09-21T23:53:54.994Z,6.20
2022-09-21T23:56:24.250Z,6.20
2022-09-21T23:58:52.459Z,6.10
